sensor_id;sensor_type;location;lat;lon;timestamp;temperature;humidity
20376;DHT22;10347;51.828;6.466;2023-04-07T00:01:21;10.70;99.90
20376;DHT22;10347;51.828;6.466;2023-04-07T00:03:47;10.70;99.90
20376;DHT22;10347;51.828;6.466;2023-04-07T00:06:13;10.70;99.90
20376;DHT22;10347;51.828;6.466;2023-04-07T00:08:38;10.70;99.90
20376;DHT22;10347;51.828;6.466;2023-04-07T00:11:05;10.70;99.90
20376;DHT22;10347;51.828;6.466;2023-04-07T00:13:30;10.70;99.90
20376;DHT22;10347;51.828;6.466;2023-04-07T00:15:56;10.70;99.90
20376;DHT22;10347;51.828;6.466;2023-04-07T00:18:21;10.70;99.90
20376;DHT22;10347;51.828;6.466;2023-04-07T00:20:47;10.70;99.90
20376;DHT22;10347;51.828;6.466;2023-04-07T00:23:13;10.70;99.90
20376;DHT22;10347;51.828;6.466;2023-04-07T00:25:38;10.80;99.90
20376;DHT22;10347;51.828;6.466;2023-04-07T00:28:04;10.80;99.90
20376;DHT22;10347;51.828;6.466;2023-04-07T00:30:29;10.80;99.90
20376;DHT22;10347;51.828;6.466;2023-04-07T00:32:55;10.80;99.90
20376;DHT22;10347;51.828;6.466;2023-04-07T00:35:21;10.80;99.90
20376;DHT22;10347;51.828;6.466;2023-04-07T00:37:46;10.80;99.90
20376;DHT22;10347;51.828;6.466;2023-04-07T00:40:12;10.80;99.90
20376;DHT22;10347;51.828;6.466;2023-04-07T00:42:38;10.80;99.90
20376;DHT22;10347;51.828;6.466;2023-04-07T00:45:04;10.80;99.90
20376;DHT22;10347;51.828;6.466;2023-04-07T00:47:30;10.80;99.90
20376;DHT22;10347;51.828;6.466;2023-04-07T00:49:56;10.80;99.90
20376;DHT22;10347;51.828;6.466;2023-04-07T00:52:21;10.80;99.90
20376;DHT22;10347;51.828;6.466;2023-04-07T00:54:54;10.80;99.90
20376;DHT22;10347;51.828;6.466;2023-04-07T00:57:20;10.80;99.90
20376;DHT22;10347;51.828;6.466;2023-04-07T00:59:48;10.90;99.90
20376;DHT22;10347;51.828;6.466;2023-04-07T01:02:18;10.80;99.90
20376;DHT22;10347;51.828;6.466;2023-04-07T01:05:24;10.80;99.90
20376;DHT22;10347;51.828;6.466;2023-04-07T01:08:07;10.90;99.90
20376;DHT22;10347;51.828;6.466;2023-04-07T01:10:45;10.80;99.90
20376;DHT22;10347;51.828;6.466;2023-04-07T01:13:27;10.90;99.90
20376;DHT22;10347;51.828;6.466;2023-04-07T01:15:54;10.90;99.90
20376;DHT22;10347;51.828;6.466;2023-04-07T01:18:25;10.80;99.90
20376;DHT22;10347;51.828;6.466;2023-04-07T01:20:55;10.80;99.90
20376;DHT22;10347;51.828;6.466;2023-04-07T01:26:22;10.80;99.90
20376;DHT22;10347;51.828;6.466;2023-04-07T01:31:27;10.70;99.90
20376;DHT22;10347;51.828;6.466;2023-04-07T01:33:56;10.70;99.90
20376;DHT22;10347;51.828;6.466;2023-04-07T01:36:23;10.70;99.90
20376;DHT22;10347;51.828;6.466;2023-04-07T01:38:53;10.80;99.90
20376;DHT22;10347;51.828;6.466;2023-04-07T01:41:19;10.70;99.90
20376;DHT22;10347;51.828;6.466;2023-04-07T01:43:46;10.70;99.90
20376;DHT22;10347;51.828;6.466;2023-04-07T01:46:13;10.70;99.90
20376;DHT22;10347;51.828;6.466;2023-04-07T01:48:39;10.70;99.90
20376;DHT22;10347;51.828;6.466;2023-04-07T01:51:05;10.70;99.90
20376;DHT22;10347;51.828;6.466;2023-04-07T01:53:33;10.70;99.90
20376;DHT22;10347;51.828;6.466;2023-04-07T01:56:02;10.80;99.90
20376;DHT22;10347;51.828;6.466;2023-04-07T01:58:28;10.80;99.90
20376;DHT22;10347;51.828;6.466;2023-04-07T02:00:53;10.80;99.90
20376;DHT22;10347;51.828;6.466;2023-04-07T02:03:22;10.90;99.90
20376;DHT22;10347;51.828;6.466;2023-04-07T02:05:54;10.80;99.90
20376;DHT22;10347;51.828;6.466;2023-04-07T02:08:21;10.80;99.90
20376;DHT22;10347;51.828;6.466;2023-04-07T02:10:48;10.80;99.90
20376;DHT22;10347;51.828;6.466;2023-04-07T02:13:18;10.80;99.90
20376;DHT22;10347;51.828;6.466;2023-04-07T02:15:45;10.80;99.90
20376;DHT22;10347;51.828;6.466;2023-04-07T02:18:13;10.80;99.90
20376;DHT22;10347;51.828;6.466;2023-04-07T02:20:41;10.80;99.90
20376;DHT22;10347;51.828;6.466;2023-04-07T02:23:08;10.80;99.90
20376;DHT22;10347;51.828;6.466;2023-04-07T02:25:33;10.80;99.90
20376;DHT22;10347;51.828;6.466;2023-04-07T02:28:02;10.80;99.90
20376;DHT22;10347;51.828;6.466;2023-04-07T02:30:28;10.80;99.90
20376;DHT22;10347;51.828;6.466;2023-04-07T02:32:53;10.80;99.90
20376;DHT22;10347;51.828;6.466;2023-04-07T02:35:19;10.80;99.90
20376;DHT22;10347;51.828;6.466;2023-04-07T02:37:46;10.90;99.90
20376;DHT22;10347;51.828;6.466;2023-04-07T02:40:12;10.80;99.90
20376;DHT22;10347;51.828;6.466;2023-04-07T02:42:38;10.80;99.90
20376;DHT22;10347;51.828;6.466;2023-04-07T02:45:08;10.80;99.90
20376;DHT22;10347;51.828;6.466;2023-04-07T02:47:34;10.90;99.90
20376;DHT22;10347;51.828;6.466;2023-04-07T02:50:00;10.80;99.90
20376;DHT22;10347;51.828;6.466;2023-04-07T02:52:25;10.80;99.90
20376;DHT22;10347;51.828;6.466;2023-04-07T02:54:51;10.90;99.90
20376;DHT22;10347;51.828;6.466;2023-04-07T02:57:17;10.90;99.90
20376;DHT22;10347;51.828;6.466;2023-04-07T02:59:42;10.90;99.90
20376;DHT22;10347;51.828;6.466;2023-04-07T03:02:08;10.90;99.90
20376;DHT22;10347;51.828;6.466;2023-04-07T03:04:34;10.90;99.90
20376;DHT22;10347;51.828;6.466;2023-04-07T03:06:59;10.90;99.90
20376;DHT22;10347;51.828;6.466;2023-04-07T03:09:26;10.90;99.90
20376;DHT22;10347;51.828;6.466;2023-04-07T03:11:51;10.80;99.90
20376;DHT22;10347;51.828;6.466;2023-04-07T03:14:17;10.90;99.90
20376;DHT22;10347;51.828;6.466;2023-04-07T03:16:43;10.80;99.90
20376;DHT22;10347;51.828;6.466;2023-04-07T03:19:09;10.80;99.90
20376;DHT22;10347;51.828;6.466;2023-04-07T03:21:36;10.80;99.90
20376;DHT22;10347;51.828;6.466;2023-04-07T03:24:03;10.80;99.90
20376;DHT22;10347;51.828;6.466;2023-04-07T03:26:28;10.80;99.90
20376;DHT22;10347;51.828;6.466;2023-04-07T03:28:54;10.80;99.90
20376;DHT22;10347;51.828;6.466;2023-04-07T03:31:19;10.80;99.90
20376;DHT22;10347;51.828;6.466;2023-04-07T03:33:45;10.80;99.90
20376;DHT22;10347;51.828;6.466;2023-04-07T03:36:11;10.80;99.90
20376;DHT22;10347;51.828;6.466;2023-04-07T03:38:36;10.70;99.90
20376;DHT22;10347;51.828;6.466;2023-04-07T03:41:02;10.80;99.90
20376;DHT22;10347;51.828;6.466;2023-04-07T03:43:27;10.80;99.90
20376;DHT22;10347;51.828;6.466;2023-04-07T03:45:53;10.80;99.90
20376;DHT22;10347;51.828;6.466;2023-04-07T03:48:19;10.80;99.90
20376;DHT22;10347;51.828;6.466;2023-04-07T03:50:45;10.80;99.90
20376;DHT22;10347;51.828;6.466;2023-04-07T03:53:11;10.80;99.90
20376;DHT22;10347;51.828;6.466;2023-04-07T03:55:38;10.80;99.90
20376;DHT22;10347;51.828;6.466;2023-04-07T03:58:04;10.80;99.90
20376;DHT22;10347;51.828;6.466;2023-04-07T04:00:30;10.80;99.90
20376;DHT22;10347;51.828;6.466;2023-04-07T04:02:58;10.80;99.90
20376;DHT22;10347;51.828;6.466;2023-04-07T04:05:23;10.80;99.90
20376;DHT22;10347;51.828;6.466;2023-04-07T04:07:49;10.80;99.90
20376;DHT22;10347;51.828;6.466;2023-04-07T04:10:17;10.80;99.90
20376;DHT22;10347;51.828;6.466;2023-04-07T04:12:43;10.80;99.90
20376;DHT22;10347;51.828;6.466;2023-04-07T04:15:09;10.80;99.90
20376;DHT22;10347;51.828;6.466;2023-04-07T04:17:35;10.90;99.90
20376;DHT22;10347;51.828;6.466;2023-04-07T04:20:01;10.90;99.90
20376;DHT22;10347;51.828;6.466;2023-04-07T04:22:26;10.80;99.90
20376;DHT22;10347;51.828;6.466;2023-04-07T04:24:52;10.90;99.90
20376;DHT22;10347;51.828;6.466;2023-04-07T04:27:17;10.90;99.90
20376;DHT22;10347;51.828;6.466;2023-04-07T04:29:43;10.80;99.90
20376;DHT22;10347;51.828;6.466;2023-04-07T04:32:10;10.80;99.90
20376;DHT22;10347;51.828;6.466;2023-04-07T04:34:35;10.80;99.90
20376;DHT22;10347;51.828;6.466;2023-04-07T04:37:01;10.90;99.90
20376;DHT22;10347;51.828;6.466;2023-04-07T04:39:26;10.80;99.90
20376;DHT22;10347;51.828;6.466;2023-04-07T04:41:52;10.80;99.90
20376;DHT22;10347;51.828;6.466;2023-04-07T04:44:17;10.90;99.90
20376;DHT22;10347;51.828;6.466;2023-04-07T04:46:43;10.90;99.90
20376;DHT22;10347;51.828;6.466;2023-04-07T04:49:08;10.80;99.90
20376;DHT22;10347;51.828;6.466;2023-04-07T04:51:34;10.80;99.90
20376;DHT22;10347;51.828;6.466;2023-04-07T04:54:00;10.80;99.90
20376;DHT22;10347;51.828;6.466;2023-04-07T04:56:27;10.80;99.90
20376;DHT22;10347;51.828;6.466;2023-04-07T04:58:52;10.80;99.90
20376;DHT22;10347;51.828;6.466;2023-04-07T05:01:18;10.80;99.90
20376;DHT22;10347;51.828;6.466;2023-04-07T05:03:43;10.80;99.90
20376;DHT22;10347;51.828;6.466;2023-04-07T05:06:09;10.80;99.90
20376;DHT22;10347;51.828;6.466;2023-04-07T05:08:34;10.80;99.90
20376;DHT22;10347;51.828;6.466;2023-04-07T05:11:00;10.80;99.90
20376;DHT22;10347;51.828;6.466;2023-04-07T05:13:25;10.80;99.90
20376;DHT22;10347;51.828;6.466;2023-04-07T05:15:51;10.80;99.90
20376;DHT22;10347;51.828;6.466;2023-04-07T05:18:17;10.80;99.90
20376;DHT22;10347;51.828;6.466;2023-04-07T05:20:43;10.90;99.90
20376;DHT22;10347;51.828;6.466;2023-04-07T05:23:09;10.80;99.90
20376;DHT22;10347;51.828;6.466;2023-04-07T05:25:34;10.80;99.90
20376;DHT22;10347;51.828;6.466;2023-04-07T05:28:01;10.80;99.90
20376;DHT22;10347;51.828;6.466;2023-04-07T05:30:27;10.80;99.90
20376;DHT22;10347;51.828;6.466;2023-04-07T05:32:53;10.80;99.90
20376;DHT22;10347;51.828;6.466;2023-04-07T05:35:18;10.70;99.90
20376;DHT22;10347;51.828;6.466;2023-04-07T05:37:44;10.80;99.90
20376;DHT22;10347;51.828;6.466;2023-04-07T05:40:10;10.80;99.90
20376;DHT22;10347;51.828;6.466;2023-04-07T05:42:35;10.80;99.90
20376;DHT22;10347;51.828;6.466;2023-04-07T05:45:01;10.80;99.90
20376;DHT22;10347;51.828;6.466;2023-04-07T05:47:27;10.80;99.90
20376;DHT22;10347;51.828;6.466;2023-04-07T05:49:52;10.80;99.90
20376;DHT22;10347;51.828;6.466;2023-04-07T05:52:18;10.80;99.90
20376;DHT22;10347;51.828;6.466;2023-04-07T05:54:43;10.90;99.90
20376;DHT22;10347;51.828;6.466;2023-04-07T05:57:09;10.80;99.90
20376;DHT22;10347;51.828;6.466;2023-04-07T05:59:35;10.80;99.90
20376;DHT22;10347;51.828;6.466;2023-04-07T06:02:01;10.80;99.90
20376;DHT22;10347;51.828;6.466;2023-04-07T06:04:27;10.80;99.90
20376;DHT22;10347;51.828;6.466;2023-04-07T06:06:53;10.80;99.90
20376;DHT22;10347;51.828;6.466;2023-04-07T06:09:20;10.80;99.90
20376;DHT22;10347;51.828;6.466;2023-04-07T06:11:46;10.80;99.90
20376;DHT22;10347;51.828;6.466;2023-04-07T06:14:12;10.80;99.90
20376;DHT22;10347;51.828;6.466;2023-04-07T06:16:38;10.80;99.90
20376;DHT22;10347;51.828;6.466;2023-04-07T06:19:04;10.80;99.90
20376;DHT22;10347;51.828;6.466;2023-04-07T06:21:31;10.80;99.90
20376;DHT22;10347;51.828;6.466;2023-04-07T06:23:57;10.90;99.90
20376;DHT22;10347;51.828;6.466;2023-04-07T06:26:23;10.90;99.90
20376;DHT22;10347;51.828;6.466;2023-04-07T06:28:48;10.80;99.90
20376;DHT22;10347;51.828;6.466;2023-04-07T06:31:14;10.80;99.90
20376;DHT22;10347;51.828;6.466;2023-04-07T06:33:41;10.80;99.90
20376;DHT22;10347;51.828;6.466;2023-04-07T06:36:06;10.80;99.90
20376;DHT22;10347;51.828;6.466;2023-04-07T06:38:32;10.80;99.90
20376;DHT22;10347;51.828;6.466;2023-04-07T06:40:57;10.80;99.90
20376;DHT22;10347;51.828;6.466;2023-04-07T06:43:23;10.80;99.90
20376;DHT22;10347;51.828;6.466;2023-04-07T06:45:48;10.80;99.90
20376;DHT22;10347;51.828;6.466;2023-04-07T06:48:14;10.80;99.90
20376;DHT22;10347;51.828;6.466;2023-04-07T06:50:40;10.80;99.90
20376;DHT22;10347;51.828;6.466;2023-04-07T06:53:06;10.80;99.90
20376;DHT22;10347;51.828;6.466;2023-04-07T06:55:31;10.80;99.90
20376;DHT22;10347;51.828;6.466;2023-04-07T06:57:57;10.80;99.90
20376;DHT22;10347;51.828;6.466;2023-04-07T07:00:22;10.90;99.90
20376;DHT22;10347;51.828;6.466;2023-04-07T07:02:48;10.80;99.90
20376;DHT22;10347;51.828;6.466;2023-04-07T07:05:14;10.80;99.90
20376;DHT22;10347;51.828;6.466;2023-04-07T07:07:40;10.80;99.90
20376;DHT22;10347;51.828;6.466;2023-04-07T07:10:08;10.70;99.90
20376;DHT22;10347;51.828;6.466;2023-04-07T07:12:34;10.80;99.90
20376;DHT22;10347;51.828;6.466;2023-04-07T07:15:00;10.80;99.90
20376;DHT22;10347;51.828;6.466;2023-04-07T07:17:25;10.80;99.90
20376;DHT22;10347;51.828;6.466;2023-04-07T07:19:51;10.80;99.90
20376;DHT22;10347;51.828;6.466;2023-04-07T07:22:17;10.80;99.90
20376;DHT22;10347;51.828;6.466;2023-04-07T07:24:42;10.90;99.90
20376;DHT22;10347;51.828;6.466;2023-04-07T07:27:08;10.80;99.90
20376;DHT22;10347;51.828;6.466;2023-04-07T07:29:33;10.80;99.90
20376;DHT22;10347;51.828;6.466;2023-04-07T07:31:59;10.80;99.90
20376;DHT22;10347;51.828;6.466;2023-04-07T07:34:25;10.80;99.90
20376;DHT22;10347;51.828;6.466;2023-04-07T07:36:50;10.80;99.90
20376;DHT22;10347;51.828;6.466;2023-04-07T07:39:16;10.80;99.90
20376;DHT22;10347;51.828;6.466;2023-04-07T07:41:42;10.90;99.90
20376;DHT22;10347;51.828;6.466;2023-04-07T07:44:07;10.80;99.90
20376;DHT22;10347;51.828;6.466;2023-04-07T07:46:33;10.90;99.90
20376;DHT22;10347;51.828;6.466;2023-04-07T07:48:59;10.80;99.90
20376;DHT22;10347;51.828;6.466;2023-04-07T07:51:24;10.90;99.90
20376;DHT22;10347;51.828;6.466;2023-04-07T07:53:50;10.90;99.90
20376;DHT22;10347;51.828;6.466;2023-04-07T07:56:15;10.80;99.90
20376;DHT22;10347;51.828;6.466;2023-04-07T07:58:41;10.90;99.90
20376;DHT22;10347;51.828;6.466;2023-04-07T08:01:06;10.90;99.90
20376;DHT22;10347;51.828;6.466;2023-04-07T08:03:32;10.90;99.90
20376;DHT22;10347;51.828;6.466;2023-04-07T08:05:57;10.90;99.90
20376;DHT22;10347;51.828;6.466;2023-04-07T08:08:23;10.90;99.90
20376;DHT22;10347;51.828;6.466;2023-04-07T08:10:48;10.90;99.90
20376;DHT22;10347;51.828;6.466;2023-04-07T08:13:14;10.90;99.90
20376;DHT22;10347;51.828;6.466;2023-04-07T08:15:40;10.90;99.90
20376;DHT22;10347;51.828;6.466;2023-04-07T08:18:06;11.00;99.90
20376;DHT22;10347;51.828;6.466;2023-04-07T08:20:32;11.00;99.90
20376;DHT22;10347;51.828;6.466;2023-04-07T08:22:58;11.00;99.90
20376;DHT22;10347;51.828;6.466;2023-04-07T08:25:26;11.00;99.90
20376;DHT22;10347;51.828;6.466;2023-04-07T08:27:51;11.00;99.90
20376;DHT22;10347;51.828;6.466;2023-04-07T08:30:17;11.00;99.90
20376;DHT22;10347;51.828;6.466;2023-04-07T08:32:43;11.00;99.90
20376;DHT22;10347;51.828;6.466;2023-04-07T08:35:10;11.10;99.90
20376;DHT22;10347;51.828;6.466;2023-04-07T08:37:36;11.00;99.90
20376;DHT22;10347;51.828;6.466;2023-04-07T08:40:03;11.00;99.90
20376;DHT22;10347;51.828;6.466;2023-04-07T08:42:31;11.00;99.90
20376;DHT22;10347;51.828;6.466;2023-04-07T08:44:58;11.00;99.90
20376;DHT22;10347;51.828;6.466;2023-04-07T08:47:27;11.00;99.90
20376;DHT22;10347;51.828;6.466;2023-04-07T08:49:56;11.00;99.90
20376;DHT22;10347;51.828;6.466;2023-04-07T08:52:42;11.00;99.90
20376;DHT22;10347;51.828;6.466;2023-04-07T08:55:09;11.00;99.90
20376;DHT22;10347;51.828;6.466;2023-04-07T08:57:36;11.10;99.90
20376;DHT22;10347;51.828;6.466;2023-04-07T09:00:03;11.10;99.90
20376;DHT22;10347;51.828;6.466;2023-04-07T09:02:37;11.10;99.90
20376;DHT22;10347;51.828;6.466;2023-04-07T09:05:05;11.10;99.90
20376;DHT22;10347;51.828;6.466;2023-04-07T09:07:31;11.10;99.90
20376;DHT22;10347;51.828;6.466;2023-04-07T09:09:57;11.10;99.90
20376;DHT22;10347;51.828;6.466;2023-04-07T09:12:23;11.10;99.90
20376;DHT22;10347;51.828;6.466;2023-04-07T09:14:49;11.10;99.90
20376;DHT22;10347;51.828;6.466;2023-04-07T09:17:15;11.20;99.90
20376;DHT22;10347;51.828;6.466;2023-04-07T09:19:40;11.20;99.90
20376;DHT22;10347;51.828;6.466;2023-04-07T09:22:06;11.20;99.90
20376;DHT22;10347;51.828;6.466;2023-04-07T09:24:32;11.10;99.90
20376;DHT22;10347;51.828;6.466;2023-04-07T09:29:37;11.10;99.90
20376;DHT22;10347;51.828;6.466;2023-04-07T09:32:03;11.20;99.90
20376;DHT22;10347;51.828;6.466;2023-04-07T09:34:33;11.20;99.90
20376;DHT22;10347;51.828;6.466;2023-04-07T09:37:00;11.20;99.90
20376;DHT22;10347;51.828;6.466;2023-04-07T09:39:26;11.20;99.90
20376;DHT22;10347;51.828;6.466;2023-04-07T09:41:52;11.30;99.90
20376;DHT22;10347;51.828;6.466;2023-04-07T09:44:18;11.30;99.90
20376;DHT22;10347;51.828;6.466;2023-04-07T09:46:52;11.30;99.90
20376;DHT22;10347;51.828;6.466;2023-04-07T09:49:19;11.30;99.90
20376;DHT22;10347;51.828;6.466;2023-04-07T09:52:02;11.30;99.90
20376;DHT22;10347;51.828;6.466;2023-04-07T09:54:39;11.30;99.90
20376;DHT22;10347;51.828;6.466;2023-04-07T09:57:07;11.40;99.90
20376;DHT22;10347;51.828;6.466;2023-04-07T09:59:35;11.40;99.90
20376;DHT22;10347;51.828;6.466;2023-04-07T10:02:01;11.40;99.90
20376;DHT22;10347;51.828;6.466;2023-04-07T10:04:27;11.40;99.90
20376;DHT22;10347;51.828;6.466;2023-04-07T10:06:54;11.40;99.90
20376;DHT22;10347;51.828;6.466;2023-04-07T10:09:22;11.50;99.90
20376;DHT22;10347;51.828;6.466;2023-04-07T10:11:50;11.40;99.90
20376;DHT22;10347;51.828;6.466;2023-04-07T10:14:18;11.50;99.90
20376;DHT22;10347;51.828;6.466;2023-04-07T10:16:44;11.40;99.90
20376;DHT22;10347;51.828;6.466;2023-04-07T10:19:10;11.50;99.90
20376;DHT22;10347;51.828;6.466;2023-04-07T10:21:39;11.50;99.90
20376;DHT22;10347;51.828;6.466;2023-04-07T10:27:04;11.50;99.90
20376;DHT22;10347;51.828;6.466;2023-04-07T10:29:34;11.50;99.90
20376;DHT22;10347;51.828;6.466;2023-04-07T10:32:02;11.60;99.90
20376;DHT22;10347;51.828;6.466;2023-04-07T10:37:13;11.60;99.90
20376;DHT22;10347;51.828;6.466;2023-04-07T10:39:42;11.60;99.90
20376;DHT22;10347;51.828;6.466;2023-04-07T10:45:03;11.70;99.90
20376;DHT22;10347;51.828;6.466;2023-04-07T10:47:29;11.60;99.90
20376;DHT22;10347;51.828;6.466;2023-04-07T10:50:17;11.70;99.90
20376;DHT22;10347;51.828;6.466;2023-04-07T10:52:44;11.70;99.90
20376;DHT22;10347;51.828;6.466;2023-04-07T10:55:28;11.70;99.90
20376;DHT22;10347;51.828;6.466;2023-04-07T11:03:38;11.70;99.90
20376;DHT22;10347;51.828;6.466;2023-04-07T11:08:43;11.70;99.90
20376;DHT22;10347;51.828;6.466;2023-04-07T11:11:11;11.70;99.90
20376;DHT22;10347;51.828;6.466;2023-04-07T11:13:40;11.70;99.90
20376;DHT22;10347;51.828;6.466;2023-04-07T11:16:06;11.80;99.90
20376;DHT22;10347;51.828;6.466;2023-04-07T11:18:33;11.90;99.90
20376;DHT22;10347;51.828;6.466;2023-04-07T11:20:59;11.90;99.90
20376;DHT22;10347;51.828;6.466;2023-04-07T11:23:25;11.90;99.90
20376;DHT22;10347;51.828;6.466;2023-04-07T11:26:01;11.90;99.90
20376;DHT22;10347;51.828;6.466;2023-04-07T11:28:27;12.00;99.90
20376;DHT22;10347;51.828;6.466;2023-04-07T11:30:54;12.00;99.90
20376;DHT22;10347;51.828;6.466;2023-04-07T11:33:24;12.00;99.90
20376;DHT22;10347;51.828;6.466;2023-04-07T11:35:55;12.00;99.90
20376;DHT22;10347;51.828;6.466;2023-04-07T11:38:23;12.00;99.90
20376;DHT22;10347;51.828;6.466;2023-04-07T11:40:49;11.90;99.90
20376;DHT22;10347;51.828;6.466;2023-04-07T11:43:26;11.90;99.90
20376;DHT22;10347;51.828;6.466;2023-04-07T11:48:31;12.00;99.90
20376;DHT22;10347;51.828;6.466;2023-04-07T11:50:57;12.00;99.90
20376;DHT22;10347;51.828;6.466;2023-04-07T11:53:30;12.00;99.90
20376;DHT22;10347;51.828;6.466;2023-04-07T11:56:09;12.10;99.90
20376;DHT22;10347;51.828;6.466;2023-04-07T11:58:48;12.10;99.90
20376;DHT22;10347;51.828;6.466;2023-04-07T12:01:14;12.20;99.90
20376;DHT22;10347;51.828;6.466;2023-04-07T12:03:57;12.20;99.90
20376;DHT22;10347;51.828;6.466;2023-04-07T12:08:53;12.20;99.90
20376;DHT22;10347;51.828;6.466;2023-04-07T12:11:19;12.20;99.90
20376;DHT22;10347;51.828;6.466;2023-04-07T12:13:44;12.20;99.90
20376;DHT22;10347;51.828;6.466;2023-04-07T12:16:10;12.30;99.90
20376;DHT22;10347;51.828;6.466;2023-04-07T12:18:35;12.30;99.90
20376;DHT22;10347;51.828;6.466;2023-04-07T12:21:02;12.30;99.90
20376;DHT22;10347;51.828;6.466;2023-04-07T12:23:27;12.40;99.90
20376;DHT22;10347;51.828;6.466;2023-04-07T12:25:53;12.40;99.90
20376;DHT22;10347;51.828;6.466;2023-04-07T12:28:18;12.30;99.90
20376;DHT22;10347;51.828;6.466;2023-04-07T12:30:44;12.40;99.90
20376;DHT22;10347;51.828;6.466;2023-04-07T12:33:10;12.40;99.90
20376;DHT22;10347;51.828;6.466;2023-04-07T12:35:35;12.40;99.90
20376;DHT22;10347;51.828;6.466;2023-04-07T12:38:03;12.40;99.90
20376;DHT22;10347;51.828;6.466;2023-04-07T12:40:29;12.40;99.90
20376;DHT22;10347;51.828;6.466;2023-04-07T12:42:55;12.40;99.90
20376;DHT22;10347;51.828;6.466;2023-04-07T12:45:23;12.50;99.90
20376;DHT22;10347;51.828;6.466;2023-04-07T12:47:48;12.40;99.90
20376;DHT22;10347;51.828;6.466;2023-04-07T12:50:14;12.40;99.90
20376;DHT22;10347;51.828;6.466;2023-04-07T12:52:40;12.40;99.90
20376;DHT22;10347;51.828;6.466;2023-04-07T12:55:06;12.30;99.90
20376;DHT22;10347;51.828;6.466;2023-04-07T12:57:32;12.30;99.90
20376;DHT22;10347;51.828;6.466;2023-04-07T12:59:57;12.40;99.90
20376;DHT22;10347;51.828;6.466;2023-04-07T13:02:23;12.30;99.90
20376;DHT22;10347;51.828;6.466;2023-04-07T13:04:48;12.20;99.90
20376;DHT22;10347;51.828;6.466;2023-04-07T13:07:14;12.30;99.90
20376;DHT22;10347;51.828;6.466;2023-04-07T13:09:40;12.30;99.90
20376;DHT22;10347;51.828;6.466;2023-04-07T13:12:09;12.20;99.90
20376;DHT22;10347;51.828;6.466;2023-04-07T13:14:36;11.90;99.90
20376;DHT22;10347;51.828;6.466;2023-04-07T13:17:02;11.90;99.90
20376;DHT22;10347;51.828;6.466;2023-04-07T13:19:28;11.90;99.90
20376;DHT22;10347;51.828;6.466;2023-04-07T13:21:54;11.80;99.90
20376;DHT22;10347;51.828;6.466;2023-04-07T13:24:20;11.80;99.90
20376;DHT22;10347;51.828;6.466;2023-04-07T13:26:46;11.70;99.90
20376;DHT22;10347;51.828;6.466;2023-04-07T13:29:12;11.70;99.90
20376;DHT22;10347;51.828;6.466;2023-04-07T13:31:37;11.80;99.90
20376;DHT22;10347;51.828;6.466;2023-04-07T13:34:03;11.90;99.90
20376;DHT22;10347;51.828;6.466;2023-04-07T13:36:28;11.80;99.90
20376;DHT22;10347;51.828;6.466;2023-04-07T13:38:55;11.90;99.90
20376;DHT22;10347;51.828;6.466;2023-04-07T13:41:21;11.90;99.90
20376;DHT22;10347;51.828;6.466;2023-04-07T13:43:47;11.90;99.90
20376;DHT22;10347;51.828;6.466;2023-04-07T13:46:13;11.90;99.90
20376;DHT22;10347;51.828;6.466;2023-04-07T13:48:44;11.90;99.90
20376;DHT22;10347;51.828;6.466;2023-04-07T13:51:09;11.90;99.90
20376;DHT22;10347;51.828;6.466;2023-04-07T13:53:35;11.90;99.90
20376;DHT22;10347;51.828;6.466;2023-04-07T13:56:01;12.00;99.90
20376;DHT22;10347;51.828;6.466;2023-04-07T13:58:28;11.90;99.90
20376;DHT22;10347;51.828;6.466;2023-04-07T14:00:54;11.90;99.90
20376;DHT22;10347;51.828;6.466;2023-04-07T14:03:20;12.00;99.90
20376;DHT22;10347;51.828;6.466;2023-04-07T14:05:47;12.00;99.90
20376;DHT22;10347;51.828;6.466;2023-04-07T14:08:12;12.00;99.90
20376;DHT22;10347;51.828;6.466;2023-04-07T14:10:39;12.00;99.90
20376;DHT22;10347;51.828;6.466;2023-04-07T14:13:05;12.00;99.90
20376;DHT22;10347;51.828;6.466;2023-04-07T14:15:31;12.00;99.90
20376;DHT22;10347;51.828;6.466;2023-04-07T14:17:58;12.00;99.90
20376;DHT22;10347;51.828;6.466;2023-04-07T14:20:25;12.00;99.90
20376;DHT22;10347;51.828;6.466;2023-04-07T14:22:50;12.00;99.90
20376;DHT22;10347;51.828;6.466;2023-04-07T14:25:16;12.00;99.90
20376;DHT22;10347;51.828;6.466;2023-04-07T14:27:42;12.00;99.90
20376;DHT22;10347;51.828;6.466;2023-04-07T14:30:08;12.00;99.90
20376;DHT22;10347;51.828;6.466;2023-04-07T14:32:34;12.00;99.90
20376;DHT22;10347;51.828;6.466;2023-04-07T14:34:59;12.10;99.90
20376;DHT22;10347;51.828;6.466;2023-04-07T14:37:27;12.10;99.90
20376;DHT22;10347;51.828;6.466;2023-04-07T14:39:52;12.10;99.90
20376;DHT22;10347;51.828;6.466;2023-04-07T14:42:19;12.10;99.90
20376;DHT22;10347;51.828;6.466;2023-04-07T14:44:45;12.10;99.90
20376;DHT22;10347;51.828;6.466;2023-04-07T14:47:11;12.10;99.90
20376;DHT22;10347;51.828;6.466;2023-04-07T14:49:37;12.10;99.90
20376;DHT22;10347;51.828;6.466;2023-04-07T14:52:02;12.10;99.90
20376;DHT22;10347;51.828;6.466;2023-04-07T14:54:28;12.10;99.90
20376;DHT22;10347;51.828;6.466;2023-04-07T14:56:54;12.20;99.90
20376;DHT22;10347;51.828;6.466;2023-04-07T14:59:19;12.20;99.90
20376;DHT22;10347;51.828;6.466;2023-04-07T15:01:45;12.20;99.90
20376;DHT22;10347;51.828;6.466;2023-04-07T15:04:11;12.20;99.90
20376;DHT22;10347;51.828;6.466;2023-04-07T15:06:39;12.20;99.90
20376;DHT22;10347;51.828;6.466;2023-04-07T15:09:04;12.20;99.90
20376;DHT22;10347;51.828;6.466;2023-04-07T15:11:30;12.20;99.90
20376;DHT22;10347;51.828;6.466;2023-04-07T15:13:56;12.20;99.90
20376;DHT22;10347;51.828;6.466;2023-04-07T15:16:22;12.20;99.90
20376;DHT22;10347;51.828;6.466;2023-04-07T15:18:48;12.20;99.90
20376;DHT22;10347;51.828;6.466;2023-04-07T15:21:14;12.20;99.90
20376;DHT22;10347;51.828;6.466;2023-04-07T15:23:40;12.20;99.90
20376;DHT22;10347;51.828;6.466;2023-04-07T15:26:06;12.30;99.90
20376;DHT22;10347;51.828;6.466;2023-04-07T15:28:32;12.20;99.90
20376;DHT22;10347;51.828;6.466;2023-04-07T15:30:58;12.20;99.90
20376;DHT22;10347;51.828;6.466;2023-04-07T15:33:24;12.20;99.90
20376;DHT22;10347;51.828;6.466;2023-04-07T15:35:50;12.20;99.90
20376;DHT22;10347;51.828;6.466;2023-04-07T15:38:16;12.20;99.90
20376;DHT22;10347;51.828;6.466;2023-04-07T15:40:41;12.20;99.90
20376;DHT22;10347;51.828;6.466;2023-04-07T15:43:07;12.20;99.90
20376;DHT22;10347;51.828;6.466;2023-04-07T15:45:39;12.20;99.90
20376;DHT22;10347;51.828;6.466;2023-04-07T15:48:05;12.20;99.90
20376;DHT22;10347;51.828;6.466;2023-04-07T15:50:30;12.20;99.90
20376;DHT22;10347;51.828;6.466;2023-04-07T15:52:58;12.20;99.90
20376;DHT22;10347;51.828;6.466;2023-04-07T15:55:24;12.10;99.90
20376;DHT22;10347;51.828;6.466;2023-04-07T15:57:49;12.10;99.90